Time;durP1;ratioP1;P1;durP2;ratioP2;P2;SDS_P1;SDS_P2;PMS_P1;PMS_P2;Temp;Humidity;BMP_temperature;BMP_pressure;BME280_temperature;BME280_humidity;BME280_pressure;Samples;Min_cycle;Max_cycle;Signal;HPM_P1;HPM_P2
2022/04/24 00:00:35;;;;;;;89.93;46.08;;;;;;;11.76;63.62;94520.34;5004600;28;20109;-79
2022/04/24 00:03:00;;;;;;;80.35;39.42;;;;;;;11.75;63.73;94531.81;5004771;28;20034;-79
2022/04/24 00:05:26;;;;;;;61.08;28.92;;;;;;;11.72;63.99;94524.47;4988260;28;20168;-79
2022/04/24 00:07:51;;;;;;;34.92;21.08;;;;;;;11.66;63.82;94518.41;4988911;28;20478;-79
2022/04/24 00:10:17;;;;;;;32.03;14.90;;;;;;;11.66;64.31;94526.22;4988465;28;20037;-79
2022/04/24 00:12:42;;;;;;;27.77;13.18;;;;;;;11.59;63.89;94517.84;4996677;28;20029;-79
2022/04/24 00:15:08;;;;;;;34.20;13.30;;;;;;;11.51;64.59;94523.47;5004875;28;20025;-78
2022/04/24 00:17:34;;;;;;;27.20;11.90;;;;;;;11.47;64.17;94524.19;5003767;28;20062;-79
2022/04/24 00:19:59;;;;;;;22.92;11.27;;;;;;;11.46;64.04;94525.22;4988102;28;20448;-79
2022/04/24 00:22:25;;;;;;;25.38;10.23;;;;;;;11.42;64.13;94528.31;4987479;28;20037;-79
2022/04/24 00:24:50;;;;;;;25.23;10.65;;;;;;;11.37;63.89;94525.66;5003820;28;20033;-78
2022/04/24 00:27:16;;;;;;;19.58;9.77;;;;;;;11.35;64.26;94526.94;5005069;28;20113;-79
2022/04/24 00:29:43;;;;;;;19.90;10.30;;;;;;;11.35;64.47;94521.72;5004592;28;20096;-79
2022/04/24 00:32:17;;;;;;;18.42;9.32;;;;;;;11.29;64.16;94528.69;5003720;28;20036;-78
2022/04/24 00:34:42;;;;;;;18.92;8.73;;;;;;;11.24;65.20;94530.47;5020427;23;20042;-79
2022/04/24 00:37:08;;;;;;;17.00;8.88;;;;;;;11.26;64.98;94533.59;5006127;28;20046;-79
2022/04/24 00:39:33;;;;;;;15.68;7.53;;;;;;;11.30;64.69;94530.25;5003270;28;20490;-79
2022/04/24 00:41:59;;;;;;;22.95;9.35;;;;;;;11.30;65.02;94537.28;5006196;28;20042;-79
2022/04/24 00:44:25;;;;;;;21.95;9.23;;;;;;;11.29;64.46;94530.50;5006274;28;20046;-79
2022/04/24 00:46:58;;;;;;;17.75;9.95;;;;;;;11.30;64.10;94535.47;4990461;28;20080;-79
2022/04/24 00:49:24;;;;;;;44.72;10.27;;;;;;;11.29;64.46;94533.91;5013316;28;20034;-79
2022/04/24 00:51:49;;;;;;;21.05;10.50;;;;;;;11.26;64.22;94523.19;5005481;28;20053;-79
2022/04/24 00:54:15;;;;;;;32.90;10.02;;;;;;;11.28;64.71;94531.53;4987119;28;20109;-79
2022/04/24 00:56:41;;;;;;;37.50;13.20;;;;;;;11.23;64.42;94534.88;5005552;28;20030;-79
2022/04/24 00:59:22;;;;;;;57.05;25.80;;;;;;;11.20;65.30;94535.34;5002402;28;20038;-79
2022/04/24 01:01:47;;;;;;;85.35;32.15;;;;;;;11.16;64.37;94538.66;5006620;28;20045;-79
2022/04/24 01:04:13;;;;;;;74.05;26.38;;;;;;;11.09;64.00;94539.66;5005491;28;20034;-79
2022/04/24 01:06:40;;;;;;;54.42;22.77;;;;;;;11.09;64.27;94539.66;5006769;28;20484;-79
2022/04/24 01:09:09;;;;;;;69.32;24.77;;;;;;;11.07;64.32;94548.72;4986990;28;20034;-79
2022/04/24 01:11:34;;;;;;;43.13;17.40;;;;;;;11.04;64.54;94543.97;5003131;28;20105;-78
2022/04/24 01:14:00;;;;;;;43.80;15.95;;;;;;;11.05;63.99;94553.34;4987887;28;20106;-80
2022/04/24 01:16:25;;;;;;;23.52;12.32;;;;;;;10.98;64.34;94537.16;4995671;28;20041;-79
2022/04/24 01:18:51;;;;;;;29.92;12.55;;;;;;;10.98;64.20;94542.34;5004272;28;20041;-79
2022/04/24 01:21:16;;;;;;;50.38;14.85;;;;;;;10.91;64.75;94546.94;4986266;28;20046;-79
2022/04/24 01:23:43;;;;;;;32.55;13.10;;;;;;;10.95;64.70;94556.63;5004978;28;20041;-79
2022/04/24 01:26:08;;;;;;;29.58;11.70;;;;;;;10.88;64.61;94558.59;5011705;28;20099;-79
2022/04/24 01:28:34;;;;;;;28.67;11.02;;;;;;;10.78;65.31;94554.06;5002120;28;20030;-79
2022/04/24 01:30:59;;;;;;;33.08;12.40;;;;;;;10.76;64.90;94556.13;5002745;28;20042;-79
2022/04/24 01:33:26;;;;;;;25.85;10.90;;;;;;;10.72;65.32;94560.19;4986618;28;20045;-79
2022/04/24 01:35:52;;;;;;;37.08;11.00;;;;;;;10.66;64.60;94550.75;5018330;28;20038;-79
2022/04/24 01:38:17;;;;;;;24.13;11.75;;;;;;;10.64;65.24;94560.63;5004569;28;20030;-79
2022/04/24 01:40:42;;;;;;;28.13;11.10;;;;;;;10.64;65.15;94562.44;5003928;28;20595;-79
2022/04/24 01:43:08;;;;;;;18.73;9.35;;;;;;;10.65;64.99;94561.41;5002612;28;20030;-79
2022/04/24 01:45:34;;;;;;;18.33;10.35;;;;;;;10.62;64.75;94564.47;5020045;28;20065;-79
2022/04/24 01:47:59;;;;;;;24.80;9.75;;;;;;;10.60;65.70;94562.13;5005024;28;20030;-79
2022/04/24 01:50:25;;;;;;;23.48;9.38;;;;;;;10.58;65.44;94568.59;5004864;28;20465;-79
2022/04/24 01:52:50;;;;;;;19.17;9.07;;;;;;;10.50;65.15;94567.94;4988004;28;20029;-79
2022/04/24 01:55:16;;;;;;;21.63;9.43;;;;;;;10.46;65.78;94571.25;5002262;28;20890;-79
2022/04/24 01:57:41;;;;;;;18.38;8.50;;;;;;;10.42;65.73;94568.34;4987792;28;20084;-79
2022/04/24 02:00:07;;;;;;;16.05;9.10;;;;;;;10.42;65.63;94570.16;5005251;28;20049;-79
2022/04/24 02:02:32;;;;;;;21.58;9.18;;;;;;;10.39;65.47;94579.19;5006791;28;20030;-78
2022/04/24 02:04:58;;;;;;;25.10;9.23;;;;;;;10.42;65.57;94570.16;5003970;28;20059;-78
2022/04/24 02:07:23;;;;;;;19.98;9.10;;;;;;;10.40;65.26;94561.78;5025038;28;20090;-78
2022/04/24 02:09:49;;;;;;;27.35;9.63;;;;;;;10.39;65.29;94568.00;5013328;28;20039;-79
2022/04/24 02:12:14;;;;;;;20.65;9.10;;;;;;;10.35;65.04;94574.72;4986226;28;20042;-79
2022/04/24 02:14:40;;;;;;;29.08;9.40;;;;;;;10.32;65.75;94570.78;5002762;28;20038;-79
2022/04/24 02:17:05;;;;;;;24.92;10.60;;;;;;;10.26;66.06;94571.72;5002484;28;20038;-79
2022/04/24 02:19:31;;;;;;;31.60;10.63;;;;;;;10.25;65.37;94579.72;4986397;28;20026;-79
2022/04/24 02:21:56;;;;;;;23.13;10.27;;;;;;;10.25;65.86;94579.72;5002937;28;20034;-79
2022/04/24 02:24:21;;;;;;;27.90;10.65;;;;;;;10.26;66.08;94570.94;5011692;28;20037;-79
2022/04/24 02:26:47;;;;;;;24.48;9.55;;;;;;;10.25;66.21;94574.53;4988970;28;20056;-79
2022/04/24 02:29:12;;;;;;;31.83;10.30;;;;;;;10.25;66.26;94579.72;5000308;28;20046;-79
2022/04/24 02:31:38;;;;;;;26.13;10.60;;;;;;;10.22;66.15;94581.78;5011812;28;20136;-79
2022/04/24 02:34:03;;;;;;;32.83;10.93;;;;;;;10.23;65.86;94578.16;5002152;28;20022;-78
2022/04/24 02:36:29;;;;;;;31.70;13.20;;;;;;;10.21;65.89;94575.00;4987026;28;20034;-79
2022/04/24 02:38:54;;;;;;;38.10;16.58;;;;;;;10.20;66.69;94585.63;5002285;28;20037;-79
2022/04/24 02:41:19;;;;;;;35.72;14.63;;;;;;;10.23;65.64;94583.34;5004675;28;20088;-78
2022/04/24 02:43:45;;;;;;;38.10;16.33;;;;;;;10.26;66.27;94586.53;5001529;28;20049;-79
2022/04/24 02:46:10;;;;;;;32.08;16.40;;;;;;;10.26;65.43;94592.53;5002146;28;20427;-79
2022/04/24 02:48:37;;;;;;;45.72;17.08;;;;;;;10.22;65.68;94576.59;5001504;28;20404;-79
2022/04/24 02:51:03;;;;;;;37.03;19.25;;;;;;;10.22;65.49;94576.59;5003698;28;20524;-79
2022/04/24 02:53:29;;;;;;;44.85;19.60;;;;;;;10.23;64.96;94582.56;4994364;28;20500;-79
2022/04/24 02:55:54;;;;;;;58.17;23.10;;;;;;;10.14;65.29;94587.34;5003867;28;20100;-79
2022/04/24 02:58:21;;;;;;;65.30;24.13;;;;;;;10.15;64.95;94590.72;5003768;28;20082;-79
2022/04/24 03:00:50;;;;;;;65.82;27.60;;;;;;;10.13;66.03;94587.59;4999531;28;20414;-79
2022/04/24 03:03:18;;;;;;;46.20;19.60;;;;;;;10.14;65.74;94589.94;5003413;28;20030;-79
2022/04/24 03:05:45;;;;;;;33.45;14.68;;;;;;;10.11;66.17;94590.41;4985858;28;20038;-79
2022/04/24 03:08:11;;;;;;;35.60;15.38;;;;;;;10.05;66.09;94595.75;4986810;28;20402;-79
2022/04/24 03:10:37;;;;;;;31.92;15.63;;;;;;;10.06;65.44;94603.31;5001998;28;20026;-79
2022/04/24 03:13:05;;;;;;;44.35;19.20;;;;;;;10.01;65.82;94599.84;4985691;28;20037;-80
2022/04/24 03:15:30;;;;;;;46.15;24.10;;;;;;;9.95;65.89;94595.56;5001258;28;20040;-80
2022/04/24 03:17:56;;;;;;;55.03;28.60;;;;;;;10.00;66.29;94600.84;5001584;28;20038;-79
2022/04/24 03:20:22;;;;;;;45.65;25.17;;;;;;;9.97;65.96;94604.72;4985416;28;20030;-79
2022/04/24 03:22:49;;;;;;;31.70;17.52;;;;;;;10.01;65.75;94607.63;4992398;28;20035;-79
2022/04/24 03:25:15;;;;;;;43.20;18.08;;;;;;;9.98;66.19;94611.47;5000638;28;20080;-79
2022/04/24 03:27:40;;;;;;;47.38;24.88;;;;;;;9.98;66.23;94608.09;5001834;28;20493;-78
2022/04/24 03:30:06;;;;;;;79.63;38.38;;;;;;;9.96;66.20;94612.75;4998438;28;20037;-78
2022/04/24 03:32:32;;;;;;;64.57;31.88;;;;;;;9.93;65.39;94614.78;4985005;28;20046;-79
2022/04/24 03:34:58;;;;;;;60.10;30.98;;;;;;;9.90;65.85;94619.63;4987822;28;20041;-78
2022/04/24 03:37:23;;;;;;;45.70;25.83;;;;;;;9.88;66.95;94619.88;5009041;28;20034;-79
2022/04/24 03:39:49;;;;;;;35.22;13.82;;;;;;;9.95;67.84;94617.16;5006669;28;20045;-79
2022/04/24 03:42:14;;;;;;;49.72;16.33;;;;;;;9.94;67.87;94615.56;4991972;28;20045;-79
2022/04/24 03:44:39;;;;;;;35.15;15.65;;;;;;;10.00;67.15;94604.25;5005895;28;20042;-79
2022/04/24 03:47:06;;;;;;;33.10;15.55;;;;;;;10.04;68.16;94607.94;4990972;28;20080;-78
2022/04/24 03:49:31;;;;;;;31.75;15.52;;;;;;;10.16;67.89;94608.69;5004391;28;20044;-79
2022/04/24 03:51:57;;;;;;;34.00;15.93;;;;;;;10.31;67.44;94615.19;5031878;28;20089;-79
2022/04/24 03:54:23;;;;;;;58.85;25.08;;;;;;;10.42;66.59;94622.16;5006198;28;20178;-79
2022/04/24 03:56:48;;;;;;;78.43;31.42;;;;;;;10.52;65.42;94619.69;5003918;28;20035;-79
2022/04/24 03:59:14;;;;;;;61.53;28.60;;;;;;;10.64;65.36;94620.41;4989471;28;20441;-79
2022/04/24 04:01:39;;;;;;;59.20;28.35;;;;;;;10.96;63.96;94612.06;4988857;28;20065;-79
2022/04/24 04:04:05;;;;;;;53.53;25.52;;;;;;;11.54;62.35;94616.72;4987831;28;20033;-79
2022/04/24 04:06:30;;;;;;;83.30;36.40;;;;;;;12.28;59.29;94622.25;4989159;28;20414;-78
2022/04/24 04:08:56;;;;;;;77.97;36.83;;;;;;;13.29;55.93;94618.84;4988072;28;20036;-79
2022/04/24 04:11:21;;;;;;;70.60;30.95;;;;;;;14.52;52.87;94614.84;5003590;28;20030;-79
2022/04/24 04:13:46;;;;;;;64.38;27.92;;;;;;;15.97;48.59;94614.06;5004666;28;20038;-79
2022/04/24 04:16:12;;;;;;;66.93;24.27;;;;;;;17.31;45.64;94612.84;5007266;28;20038;-79
2022/04/24 04:18:38;;;;;;;50.90;20.30;;;;;;;18.66;41.72;94617.78;5006905;28;20046;-79
2022/04/24 04:21:03;;;;;;;46.35;19.88;;;;;;;19.91;39.06;94615.09;5004674;28;20038;-79
2022/04/24 04:23:32;;;;;;;32.25;20.05;;;;;;;21.24;36.89;94614.47;5003732;28;20491;-79
2022/04/24 04:25:58;;;;;;;56.22;24.27;;;;;;;22.54;34.64;94609.56;4989415;28;20045;-79
2022/04/24 04:28:24;;;;;;;76.53;32.63;;;;;;;23.83;31.99;94621.84;5011638;28;20026;-80
2022/04/24 04:30:49;;;;;;;81.28;38.45;;;;;;;24.98;30.45;94619.66;4988247;28;20034;-80
2022/04/24 04:33:15;;;;;;;32.90;15.82;;;;;;;25.99;27.90;94617.34;4988065;28;20433;-80
2022/04/24 04:35:40;;;;;;;21.50;11.18;;;;;;;26.91;26.89;94621.97;5004855;28;20033;-80
2022/04/24 04:38:06;;;;;;;20.52;8.63;;;;;;;27.43;25.89;94617.63;5003061;28;20038;-80
2022/04/24 04:40:31;;;;;;;27.45;10.70;;;;;;;28.21;25.27;94630.22;4987476;28;20415;-81
2022/04/24 04:42:57;;;;;;;13.55;7.57;;;;;;;28.90;24.34;94626.00;5006504;28;20029;-80
2022/04/24 04:45:24;;;;;;;14.55;7.45;;;;;;;29.18;23.62;94633.81;4988162;28;20096;-81
2022/04/24 04:47:50;;;;;;;18.70;6.28;;;;;;;29.34;22.74;94632.94;5003891;28;20046;-81
2022/04/24 04:50:16;;;;;;;19.52;6.57;;;;;;;29.62;22.69;94632.72;4986822;28;20034;-81
2022/04/24 04:52:42;;;;;;;19.77;6.32;;;;;;;30.04;22.63;94633.41;5019658;28;20038;-78
2022/04/24 04:55:07;;;;;;;9.63;4.95;;;;;;;30.36;21.32;94633.13;5006104;28;20041;-80
2022/04/24 04:57:33;;;;;;;14.13;4.65;;;;;;;30.70;20.85;94629.38;5005228;28;20058;-80
2022/04/24 04:59:58;;;;;;;9.23;4.78;;;;;;;31.37;20.14;94634.00;5004597;28;20264;-80
2022/04/24 05:02:23;;;;;;;10.20;4.72;;;;;;;32.10;19.30;94634.31;5003979;28;20061;-80
2022/04/24 05:04:49;;;;;;;15.25;4.25;;;;;;;33.17;18.67;94630.31;5002825;28;20424;-80
2022/04/24 05:07:24;;;;;;;10.05;5.00;;;;;;;33.99;18.03;94633.94;4987121;28;20038;-78
2022/04/24 05:09:49;;;;;;;10.55;4.55;;;;;;;34.72;17.22;94632.72;5028238;28;20592;-79
2022/04/24 05:12:15;;;;;;;9.02;3.83;;;;;;;35.55;16.46;94623.88;5021556;28;20045;-79
2022/04/24 05:14:40;;;;;;;9.00;5.03;;;;;;;36.62;15.71;94629.22;4989517;28;20030;-78
2022/04/24 05:17:06;;;;;;;8.50;4.53;;;;;;;37.43;15.15;94624.03;4989917;28;20066;-79
2022/04/24 05:19:31;;;;;;;12.63;4.40;;;;;;;38.06;14.65;94624.25;5006038;28;20461;-78
2022/04/24 05:21:57;;;;;;;9.65;4.47;;;;;;;38.65;14.06;94631.81;4990601;28;20045;-78
2022/04/24 05:24:22;;;;;;;19.45;5.15;;;;;;;39.01;13.94;94631.09;4991404;28;20049;-78
2022/04/24 05:26:48;;;;;;;7.38;3.85;;;;;;;39.43;13.43;94629.50;5006632;28;20046;-79
2022/04/24 05:29:14;;;;;;;5.55;3.58;;;;;;;39.72;12.63;94623.44;5007029;28;20049;-79
2022/04/24 05:32:07;;;;;;;7.78;3.97;;;;;;;40.43;12.38;94625.22;4989510;28;20042;-79
2022/04/24 05:34:33;;;;;;;8.43;4.07;;;;;;;40.83;12.19;94624.97;5005375;28;20046;-78
2022/04/24 05:36:58;;;;;;;11.98;4.15;;;;;;;40.78;12.17;94620.78;5003973;28;20038;-78
2022/04/24 05:39:24;;;;;;;8.07;3.70;;;;;;;41.30;11.43;94621.72;5006350;28;20041;-81
2022/04/24 05:41:52;;;;;;;9.82;3.83;;;;;;;41.03;11.34;94628.31;5002328;28;20041;-81
2022/04/24 05:44:17;;;;;;;7.40;3.90;;;;;;;41.41;11.15;94619.44;5003706;28;20026;-79
2022/04/24 05:46:43;;;;;;;14.60;4.03;;;;;;;42.16;10.90;94625.34;5005653;28;20042;-80
2022/04/24 05:49:08;;;;;;;8.05;3.70;;;;;;;42.31;11.03;94609.22;4998703;28;20038;-80
2022/04/24 05:51:34;;;;;;;11.02;4.28;;;;;;;42.68;10.64;94616.53;5006073;28;20066;-79
2022/04/24 05:54:00;;;;;;;6.30;3.85;;;;;;;43.09;10.42;94611.97;5006301;28;20038;-79
2022/04/24 05:56:25;;;;;;;13.98;4.60;;;;;;;43.49;10.16;94611.28;4988674;28;20086;-80
2022/04/24 05:58:51;;;;;;;6.95;4.45;;;;;;;43.79;9.72;94612.50;5005425;28;20490;-82
2022/04/24 06:01:17;;;;;;;9.00;4.75;;;;;;;43.88;10.04;94615.25;5007259;28;20035;-80
2022/04/24 06:03:42;;;;;;;12.00;5.32;;;;;;;43.82;9.94;94611.59;5007321;28;20029;-80
2022/04/24 06:06:08;;;;;;;13.00;4.88;;;;;;;43.30;10.17;94615.94;5015404;28;20035;-80
2022/04/24 06:08:33;;;;;;;9.52;5.05;;;;;;;42.40;10.77;94606.56;5015975;28;20030;-79
2022/04/24 06:10:59;;;;;;;12.85;5.30;;;;;;;41.76;11.47;94608.63;5014505;28;20528;-81
2022/04/24 06:13:24;;;;;;;15.88;6.50;;;;;;;40.77;11.54;94608.34;5005880;28;20023;-81
2022/04/24 06:15:54;;;;;;;16.33;6.30;;;;;;;39.20;12.68;94599.66;5004689;28;20089;-80
2022/04/24 06:18:19;;;;;;;13.27;6.40;;;;;;;37.78;14.30;94597.56;5007716;28;20038;-81
2022/04/24 06:20:45;;;;;;;18.25;6.97;;;;;;;36.65;14.86;94600.56;5007428;28;20042;-81
2022/04/24 06:23:13;;;;;;;23.70;6.78;;;;;;;35.78;15.54;94602.47;4988399;28;20058;-81
2022/04/24 06:25:39;;;;;;;13.57;7.05;;;;;;;35.15;16.22;94590.88;5005898;28;20030;-81
2022/04/24 06:28:05;;;;;;;16.52;6.35;;;;;;;34.43;17.17;94592.28;5005169;28;20046;-81
2022/04/24 06:30:31;;;;;;;19.77;7.22;;;;;;;33.90;17.59;94593.13;4989175;28;20095;-81
2022/04/24 06:33:03;;;;;;;16.40;6.85;;;;;;;33.36;18.38;94592.28;5004412;28;20041;-81
2022/04/24 06:35:28;;;;;;;17.00;6.55;;;;;;;32.70;18.96;94599.69;4988244;28;20045;-81
2022/04/24 06:37:55;;;;;;;12.52;6.32;;;;;;;32.16;19.49;94601.31;5005842;28;20105;-81
2022/04/24 06:40:23;;;;;;;11.45;6.10;;;;;;;31.71;19.84;94599.00;4988170;28;20366;-80
2022/04/24 06:42:52;;;;;;;14.40;7.25;;;;;;;31.22;20.25;94598.16;5004133;28;20125;-80
2022/04/24 06:45:21;;;;;;;18.35;6.68;;;;;;;30.65;20.82;94591.38;5002860;28;20038;-82
2022/04/24 06:47:46;;;;;;;14.05;6.07;;;;;;;30.11;21.25;94590.63;5004892;28;20137;-79
2022/04/24 06:50:12;;;;;;;18.95;6.50;;;;;;;29.64;21.93;94591.03;5001878;28;20062;-81
2022/04/24 06:52:37;;;;;;;11.20;6.35;;;;;;;29.23;23.35;94593.34;4986940;28;20092;-80
2022/04/24 06:55:05;;;;;;;14.32;6.80;;;;;;;29.05;23.55;94592.25;5004732;28;20045;-80
2022/04/24 06:57:32;;;;;;;14.73;6.50;;;;;;;28.98;23.51;94584.88;4986229;28;20057;-82
2022/04/24 06:59:59;;;;;;;20.15;6.50;;;;;;;28.83;23.23;94577.66;5181954;23;20369;-82
2022/04/24 07:02:24;;;;;;;10.57;5.82;;;;;;;28.58;23.50;94582.50;5011756;28;20073;-81
2022/04/24 07:04:49;;;;;;;10.77;5.68;;;;;;;28.40;24.26;94581.38;5013394;28;20037;-81
2022/04/24 07:07:41;;;;;;;14.70;5.90;;;;;;;28.21;23.73;94582.09;4995488;28;20033;-85
2022/04/24 07:10:07;;;;;;;16.70;6.03;;;;;;;28.06;24.65;94575.66;5011634;28;20061;-82
2022/04/24 07:12:58;;;;;;;11.43;5.40;;;;;;;27.93;24.55;94584.91;5013513;28;20048;-81
2022/04/24 07:15:24;;;;;;;12.30;5.57;;;;;;;27.96;25.19;94578.06;5014396;28;20046;-81
2022/04/24 07:17:51;;;;;;;13.15;5.13;;;;;;;27.89;24.81;94573.34;5013635;28;20029;-82
2022/04/24 07:20:17;;;;;;;15.93;5.00;;;;;;;27.88;25.08;94565.69;5010458;28;20042;-81
2022/04/24 07:22:53;;;;;;;16.13;5.32;;;;;;;27.83;24.64;94564.06;4995729;28;20037;-81
2022/04/24 07:25:20;;;;;;;10.15;4.97;;;;;;;27.61;24.93;94567.31;5008493;28;20092;-84
2022/04/24 07:27:46;;;;;;;12.88;5.07;;;;;;;27.41;25.12;94559.22;4994114;28;20049;-81
2022/04/24 07:30:15;;;;;;;10.57;5.55;;;;;;;27.33;25.20;94552.13;5010861;28;20038;-81
2022/04/24 07:32:42;;;;;;;13.27;5.32;;;;;;;27.24;25.55;94556.88;4995326;28;20040;-81
2022/04/24 07:35:21;;;;;;;10.82;4.90;;;;;;;27.09;25.98;94557.63;5009802;28;20046;-81
2022/04/24 07:37:46;;;;;;;8.65;4.75;;;;;;;26.69;26.34;94555.81;5012510;28;20095;-81
2022/04/24 07:40:17;;;;;;;9.23;4.63;;;;;;;26.40;26.48;94553.47;5011762;28;20033;-81
2022/04/24 07:42:49;;;;;;;9.70;5.18;;;;;;;26.25;27.14;94555.69;4994782;28;20045;-81
2022/04/24 07:45:20;;;;;;;14.73;4.70;;;;;;;26.20;26.69;94555.16;5011606;28;20045;-81
2022/04/24 07:47:46;;;;;;;11.90;4.75;;;;;;;25.95;26.82;94557.06;5011266;28;20045;-81
2022/04/24 07:50:12;;;;;;;8.93;4.43;;;;;;;25.88;28.28;94560.31;4995169;28;20066;-81
2022/04/24 07:52:38;;;;;;;11.70;5.00;;;;;;;25.66;27.35;94558.81;5016425;28;20037;-79
2022/04/24 07:55:04;;;;;;;13.10;5.43;;;;;;;25.42;27.78;94559.59;4998457;28;20124;-81
2022/04/24 07:57:29;;;;;;;11.50;4.30;;;;;;;25.22;28.42;94549.00;5012467;28;20045;-81
2022/04/24 07:59:55;;;;;;;11.35;4.50;;;;;;;25.25;28.12;94548.38;5011964;28;20037;-81
2022/04/24 08:02:20;;;;;;;15.32;4.70;;;;;;;25.29;28.19;94538.63;5014154;28;20042;-81
2022/04/24 08:04:46;;;;;;;15.02;4.90;;;;;;;24.95;28.80;94540.53;5017007;28;20088;-84
2022/04/24 08:07:11;;;;;;;12.57;4.78;;;;;;;24.88;28.94;94542.94;5012253;28;20042;-84
2022/04/24 08:09:37;;;;;;;8.52;3.90;;;;;;;24.94;28.85;94538.97;5011665;28;20030;-81
2022/04/24 08:12:03;;;;;;;13.82;3.40;;;;;;;25.00;28.11;94527.03;5012427;28;20073;-81
2022/04/24 08:14:29;;;;;;;7.13;3.28;;;;;;;25.02;28.38;94524.03;5009776;28;20033;-81
2022/04/24 08:16:55;;;;;;;5.78;2.92;;;;;;;25.09;28.23;94524.28;5009498;28;20042;-82
2022/04/24 08:19:21;;;;;;;9.32;3.47;;;;;;;25.09;28.80;94518.97;5011355;28;20389;-82
2022/04/24 08:22:11;;;;;;;12.15;3.83;;;;;;;25.01;28.76;94511.84;5014289;28;20054;-79
2022/04/24 08:24:37;;;;;;;9.18;3.17;;;;;;;24.95;28.53;94502.50;5015117;28;20499;-80
2022/04/24 08:27:02;;;;;;;9.40;3.85;;;;;;;24.78;29.25;94503.47;5015313;28;20036;-80
2022/04/24 08:29:53;;;;;;;13.23;3.35;;;;;;;24.82;30.01;94507.00;5015072;28;20030;-80
2022/04/24 08:32:21;;;;;;;20.02;3.40;;;;;;;24.81;29.51;94505.47;5011065;28;20038;-79
2022/04/24 08:34:47;;;;;;;11.02;3.70;;;;;;;24.86;29.05;94499.91;5012397;28;20066;-79
2022/04/24 08:37:12;;;;;;;17.17;3.72;;;;;;;24.80;28.90;94504.69;5013311;28;20049;-80
2022/04/24 08:39:37;;;;;;;8.93;3.03;;;;;;;24.77;28.90;94501.91;5014596;28;20132;-80
2022/04/24 08:42:03;;;;;;;11.23;2.95;;;;;;;24.81;29.28;94502.81;5014670;28;20034;-79
2022/04/24 08:44:58;;;;;;;9.30;4.20;;;;;;;24.71;28.72;94505.88;5013409;28;20107;-79
2022/04/24 08:47:24;;;;;;;7.97;3.78;;;;;;;24.35;29.49;94504.63;5013229;28;20046;-79
2022/04/24 08:49:52;;;;;;;13.15;3.67;;;;;;;23.84;30.56;94495.94;5015566;28;20057;-81
2022/04/24 08:52:19;;;;;;;6.85;3.28;;;;;;;24.04;30.22;94501.56;5013744;28;20038;-78
2022/04/24 08:54:45;;;;;;;15.60;3.53;;;;;;;24.07;29.83;94492.94;5010736;28;20092;-78
2022/04/24 08:57:14;;;;;;;8.82;3.35;;;;;;;24.12;29.98;94487.47;5014507;28;20044;-78
2022/04/24 08:59:39;;;;;;;9.50;3.50;;;;;;;24.13;30.02;94478.38;4995371;28;20038;-80
2022/04/24 09:02:05;;;;;;;7.53;3.05;;;;;;;24.19;29.76;94482.38;5011748;28;20060;-78
2022/04/24 09:04:35;;;;;;;11.40;3.08;;;;;;;24.30;29.51;94488.91;5003560;28;20413;-78
2022/04/24 09:07:02;;;;;;;6.35;2.75;;;;;;;24.37;30.67;94473.19;5012765;28;20401;-78
2022/04/24 09:09:27;;;;;;;12.77;3.38;;;;;;;24.34;30.12;94481.81;5012427;28;20034;-78
2022/04/24 09:12:17;;;;;;;13.80;3.03;;;;;;;23.97;29.78;94480.06;5014023;28;20065;-79
2022/04/24 09:14:49;;;;;;;9.18;2.70;;;;;;;23.87;29.63;94471.38;5015569;28;20127;-81
2022/04/24 09:17:21;;;;;;;8.95;2.97;;;;;;;23.90;30.27;94472.59;5015108;28;20030;-78
2022/04/24 09:19:47;;;;;;;4.57;2.45;;;;;;;23.98;30.95;94465.69;5014533;28;20582;-80
2022/04/24 09:22:12;;;;;;;8.30;2.72;;;;;;;23.55;30.95;94459.53;5013358;28;20037;-81
2022/04/24 09:24:59;;;;;;;7.63;3.15;;;;;;;23.63;31.22;94468.59;5017009;28;20104;-87
2022/04/24 09:27:28;;;;;;;9.30;2.75;;;;;;;23.62;31.29;94453.75;5017262;28;20474;-77
2022/04/24 09:30:02;;;;;;;6.63;2.35;;;;;;;23.10;30.88;94451.34;5012428;28;20038;-78
2022/04/24 09:32:37;;;;;;;11.52;2.88;;;;;;;22.82;31.53;94447.56;5011439;28;20037;-80
2022/04/24 09:35:03;;;;;;;7.03;2.53;;;;;;;22.83;31.65;94438.53;4997374;28;20030;-79
2022/04/24 09:38:10;;;;;;;5.45;2.63;;;;;;;22.84;31.52;94429.47;5009415;28;20425;-78
2022/04/24 09:40:44;;;;;;;4.80;2.30;;;;;;;22.77;32.42;94440.53;5005046;28;20180;-79
2022/04/24 09:43:10;;;;;;;7.90;2.65;;;;;;;22.75;31.50;94437.41;5011989;28;20513;-80
2022/04/24 09:45:37;;;;;;;6.15;2.53;;;;;;;22.90;30.96;94428.19;5010745;28;20033;-81
2022/04/24 09:48:13;;;;;;;9.07;2.50;;;;;;;23.02;30.77;94425.66;5011632;28;20516;-79
2022/04/24 09:50:39;;;;;;;7.72;2.22;;;;;;;23.20;30.95;94421.81;4994925;28;20568;-81
2022/04/24 09:53:05;;;;;;;7.43;2.60;;;;;;;23.29;31.21;94425.22;5015319;28;20056;-79
2022/04/24 09:55:31;;;;;;;8.15;2.38;;;;;;;23.12;31.65;94414.69;5012925;28;20042;-81
2022/04/24 09:57:56;;;;;;;13.18;2.60;;;;;;;23.11;31.11;94415.78;4993840;28;20030;-77
2022/04/24 10:00:22;;;;;;;10.40;2.58;;;;;;;22.92;32.20;94404.78;5008173;28;20489;-76
2022/04/24 10:02:50;;;;;;;16.20;2.60;;;;;;;22.89;31.42;94405.44;4992778;28;20037;-76
2022/04/24 10:05:15;;;;;;;6.60;2.40;;;;;;;22.93;31.07;94401.81;5009044;28;20456;-77
2022/04/24 10:07:41;;;;;;;8.90;2.95;;;;;;;22.79;31.02;94395.16;5009318;28;20034;-76
2022/04/24 10:10:07;;;;;;;6.88;2.78;;;;;;;22.30;32.54;94387.53;5008592;28;20095;-77
2022/04/24 10:12:33;;;;;;;5.55;2.42;;;;;;;22.55;32.54;94385.09;5007436;28;20022;-76
2022/04/24 10:15:02;;;;;;;8.63;2.90;;;;;;;22.73;32.12;94371.47;5020774;28;20037;-78
2022/04/24 10:17:43;;;;;;;4.95;2.33;;;;;;;22.91;32.16;94382.03;5027797;28;20125;-77
2022/04/24 10:20:14;;;;;;;4.20;2.33;;;;;;;22.67;32.79;94382.56;5008743;28;20053;-79
2022/04/24 10:22:47;;;;;;;11.57;2.63;;;;;;;22.21;33.28;94381.47;5010330;28;20048;-76
2022/04/24 10:25:14;;;;;;;;;;;;;;;22.26;33.34;94377.88;5010986;28;20513;-77
2022/04/24 10:27:41;;;;;;;4.10;2.33;;;;;;;22.23;33.35;94375.84;5008137;28;19925;-77
2022/04/24 10:30:10;;;;;;;5.65;2.60;;;;;;;22.17;33.52;94373.38;5010876;28;20133;-77
2022/04/24 10:32:36;;;;;;;7.72;2.75;;;;;;;21.93;33.24;94370.41;5009539;28;20030;-78
2022/04/24 10:35:13;;;;;;;10.57;2.88;;;;;;;21.81;34.08;94375.59;5008721;28;20095;-77
2022/04/24 10:37:42;;;;;;;5.15;2.30;;;;;;;21.86;33.63;94368.25;4996094;28;20037;-78
2022/04/24 10:40:12;;;;;;;7.38;2.70;;;;;;;21.99;34.09;94376.34;5014342;28;20064;-78
2022/04/24 10:42:38;;;;;;;10.93;2.85;;;;;;;22.17;33.68;94377.91;4997473;28;20038;-78
2022/04/24 10:45:09;;;;;;;7.63;2.58;;;;;;;22.29;33.34;94364.78;5015294;28;20076;-78
2022/04/24 10:48:16;;;;;;;23.48;2.63;;;;;;;22.50;33.04;94362.22;4999271;28;20050;-79
2022/04/24 10:50:52;;;;;;;7.18;2.50;;;;;;;22.79;32.04;94356.19;4916318;29;20051;-78
2022/04/24 10:53:18;;;;;;;11.75;2.13;;;;;;;23.03;32.57;94351.06;4916395;29;20036;-78
2022/04/24 10:55:43;;;;;;;8.38;2.78;;;;;;;23.18;31.57;94349.75;4968775;28;20054;-78
2022/04/24 10:58:09;;;;;;;6.57;2.63;;;;;;;23.23;31.56;94354.84;4997404;28;20037;-78
2022/04/24 11:00:34;;;;;;;7.05;2.28;;;;;;;23.06;31.74;94347.00;4993084;28;20033;-79
2022/04/24 11:03:13;;;;;;;8.77;2.72;;;;;;;23.16;31.80;94351.16;5011882;28;20108;-78
2022/04/24 11:05:43;;;;;;;4.38;2.22;;;;;;;23.30;31.77;94346.41;5010219;28;20040;-78
2022/04/24 11:08:10;;;;;;;11.27;2.40;;;;;;;23.22;31.23;94348.00;5011375;28;20045;-78
2022/04/24 11:10:40;;;;;;;9.40;2.60;;;;;;;23.20;31.38;94338.81;5009616;28;20026;-78
2022/04/24 11:13:09;;;;;;;6.22;2.45;;;;;;;23.15;31.39;94331.06;5015739;28;20034;-78
2022/04/24 11:15:37;;;;;;;6.03;2.25;;;;;;;23.10;32.02;94332.00;4996948;28;20054;-79
2022/04/24 11:18:03;;;;;;;12.93;3.50;;;;;;;23.16;31.13;94325.41;5008531;28;20025;-78
2022/04/24 11:20:31;;;;;;;9.18;2.28;;;;;;;23.31;30.77;94330.16;4991992;28;20030;-77
2022/04/24 11:22:57;;;;;;;11.45;2.70;;;;;;;23.36;30.00;94321.22;5009663;28;20076;-79
2022/04/24 11:25:24;;;;;;;8.20;2.05;;;;;;;23.50;29.56;94323.59;4996574;28;20493;-79